Latest Weather Observations for Flinders Island Airport

IDT60801

Issued at 6:31 pm EST Monday 31 August 2015 (issued every 30 minutes, with the page automatically refreshed every 10 minutes)

About weather observations | Map of weather stations | Latest weather observations for TAS | Other Formats
Station Details ID: 099005 Name: FLINDERS ISLAND AIRPORT Lat: -40.09 Lon: 148.00 Height: 9.0 m
Data from the previous 72 hours. | See also: Recent months at Flinders Island Airport
Date/Time
EST
Temp
°C
App
Temp
°C
Dew
Point
Rel
Hum
%
Delta-T
°C
Wind Press
QNH
hPa
Press
MSL
hPa
Rain
since 9 am
mm
Dir
 
Spd
km/h
Gust
km/h
Spd
kts
Gust
kts
31/06:30pm 9.6 6.4 6.7 82 1.4 SW 13 17 7 9 1017.4 1017.5 0.0
31/06:00pm 9.7 5.6 6.1 78 1.7 SW 17 19 9 10 1017.4 1017.5 0.0
31/05:30pm 10.3 6.2 6.1 75 1.9 WSW 17 19 9 10 1017.3 1017.4 0.0
31/05:00pm 10.9 6.6 5.4 69 2.5 WSW 17 20 9 11 1017.4 1017.5 0.0
31/04:30pm 11.1 7.0 6.3 72 2.2 WSW 17 20 9 11 1017.4 1017.5 0.0
31/04:00pm 11.6 6.9 6.1 69 2.6 WSW 20 24 11 13 1017.3 1017.4 0.0
31/03:30pm 11.7 7.6 6.0 68 2.7 WSW 17 20 9 11 1017.3 1017.4 0.0
31/03:00pm 11.9 7.4 6.2 68 2.7 WSW 19 24 10 13 1017.6 1017.7 0.0
31/02:30pm 12.1 7.6 7.0 71 2.4 SW 20 26 11 14 1017.6 1017.7 0.0
31/02:00pm 12.3 7.9 6.4 67 2.8 SSW 19 22 10 12 1018.0 1018.0 0.0
31/01:30pm 12.4 7.8 6.5 67 2.8 SW 20 28 11 15 1018.2 1018.2 0.0
31/01:00pm 12.8 7.0 6.2 64 3.1 SSW 26 32 14 17 1018.2 1018.2 0.0
31/12:30pm 11.9 6.0 6.0 67 2.8 SSW 26 30 14 16 1018.5 1018.5 0.0
31/12:00pm 12.1 6.3 6.2 67 2.8 S 26 32 14 17 1018.8 1018.8 0.0
31/11:30am 12.7 7.1 7.2 69 2.7 S 26 33 14 18 1019.0 1019.0 0.0
31/11:00am 11.7 6.3 6.4 70 2.5 SSW 24 30 13 16 1019.3 1019.3 0.0
31/10:30am 11.1 6.6 6.0 71 2.4 S 19 28 10 15 1019.5 1019.5 0.0
31/10:00am 10.9 5.4 6.1 72 2.2 S 24 35 13 19 1019.6 1019.6 0.0
31/09:30am 11.1 6.4 6.0 71 2.4 S 20 28 11 15 1019.7 1019.7 0.0
31/09:00am 10.7 6.9 5.9 72 2.2 S 15 20 8 11 1019.7 1019.7 0.0
31/08:30am 10.3 7.1 5.3 71 2.3 SSE 11 17 6 9 1019.8 1019.8 0.0
31/08:00am 9.7 6.5 5.1 73 2.1 ESE 11 17 6 9 1019.9 1019.9 0.0
31/07:30am 8.8 4.5 5.2 78 1.6 S 17 26 9 14 1019.8 1019.8 0.0
31/07:00am 7.4 3.2 4.0 79 1.5 S 15 26 8 14 1019.6 1019.6 0.0
31/06:30am 8.0 3.2 4.4 78 1.6 S 19 28 10 15 1019.5 1019.5 0.0
31/06:00am 8.5 4.1 4.5 76 1.8 S 17 26 9 14 1019.5 1019.5 0.0
31/05:30am 8.9 3.2 4.7 75 1.9 S 24 33 13 18 1019.5 1019.5 0.0
31/05:00am 8.4 4.3 4.2 75 1.8 S 15 24 8 13 1019.7 1019.7 0.0
31/04:30am 9.0 4.9 4.6 74 1.9 S 15 22 8 12 1019.7 1019.7 0.0
31/04:00am 9.6 5.3 5.2 74 2.0 S 17 24 9 13 1019.7 1019.7 0.0
31/03:30am 9.7 5.8 5.3 74 2.0 S 15 24 8 13 1019.9 1019.9 0.0
31/03:00am 9.8 6.3 5.4 74 2.0 S 13 22 7 12 1020.0 1020.0 0.0
31/02:30am 10.0 6.2 5.6 74 2.0 S 15 24 8 13 1020.3 1020.3 0.0
31/02:00am 10.0 5.7 5.2 72 2.2 S 17 26 9 14 1020.6 1020.6 0.0
31/01:30am 10.0 6.2 5.8 75 1.9 SSW 15 19 8 10 1020.8 1020.8 0.0
31/01:00am 9.8 5.7 6.0 77 1.7 SW 17 19 9 10 1021.0 1021.0 0.0
31/12:30am 9.5 5.4 6.2 80 1.5 SW 17 20 9 11 1021.2 1021.2 0.0
31/12:00am 8.9 4.5 6.5 85 1.1 WSW 19 22 10 12 1021.3 1021.3 0.0
 
Date/Time
EST
Temp
°C
App
Temp
°C
Dew
Point
Rel
Hum
%
Delta-T
°C
Wind Press
QNH
hPa
Press
MSL
hPa
Rain
since 9 am
mm
Dir
 
Spd
km/h
Gust
km/h
Spd
kts
Gust
kts
30/11:30pm 5.8 2.4 4.1 89 0.7 W 11 22 6 12 1021.6 1021.6 0.0
30/11:00pm 6.1 4.8 4.3 88 0.8 CALM 0 0 0 0 1021.9 1021.9 0.0
30/10:30pm 6.4 4.1 4.6 88 0.8 E 6 7 3 4 1022.1 1022.1 0.0
30/10:00pm 6.2 4.5 4.0 86 0.9 N 2 9 1 5 1022.2 1022.2 0.0
30/09:30pm 6.6 3.6 4.3 85 1.0 NW 9 11 5 6 1022.3 1022.3 0.0
30/09:00pm 7.2 5.6 4.5 83 1.2 NNW 2 7 1 4 1022.4 1022.4 0.0
30/08:30pm 7.1 4.1 3.9 80 1.4 NW 9 11 5 6 1022.4 1022.4 0.0
30/08:00pm 8.2 6.2 4.2 76 1.7 SSW 4 7 2 4 1022.4 1022.4 0.0
30/07:30pm 8.2 5.6 4.0 75 1.8 SE 7 11 4 6 1022.2 1022.2 0.0
30/07:00pm 8.4 7.0 3.7 72 2.0 CALM 0 6 0 3 1022.1 1022.1 0.0
30/06:30pm 9.2 5.4 4.0 70 2.3 NW 13 17 7 9 1021.9 1021.9 0.0
30/06:00pm 9.5 6.1 4.1 69 2.4 NW 11 15 6 8 1021.9 1021.9 0.0
30/05:30pm 10.2 6.0 3.7 64 2.9 WNW 15 17 8 9 1021.8 1021.8 0.0
30/05:00pm 11.0 6.7 3.5 60 3.3 WNW 15 17 8 9 1021.7 1021.7 0.0
30/04:30pm 11.0 7.1 3.5 60 3.3 W 13 17 7 9 1021.7 1021.7 0.0
30/04:00pm 11.2 6.5 3.3 58 3.4 WNW 17 22 9 12 1021.7 1021.7 0.0
30/03:30pm 11.4 6.5 3.9 60 3.3 WNW 19 24 10 13 1021.7 1021.7 0.0
30/03:00pm 11.7 6.7 4.7 62 3.2 W 20 26 11 14 1021.7 1021.7 0.0
30/02:30pm 12.1 7.3 4.6 60 3.4 WNW 19 24 10 13 1021.6 1021.6 0.0
30/02:00pm 11.9 7.8 2.4 52 4.1 WSW 13 19 7 10 1021.6 1021.6 0.0
30/01:30pm 11.4 7.5 1.4 50 4.2 W 11 13 6 7 1021.8 1021.8 0.0
30/01:00pm 11.1 7.7 1.9 53 3.9 WSW 9 15 5 8 1022.2 1022.2 0.0
30/12:30pm 11.7 7.6 2.2 52 4.1 SW 13 17 7 9 1022.5 1022.5 0.0
30/12:00pm 11.3 7.6 2.6 55 3.7 SW 11 15 6 8 1022.9 1022.9 0.0
30/11:30am 11.4 6.9 2.2 53 3.9 SSW 15 24 8 13 1023.5 1023.5 0.0
30/11:00am 10.8 6.0 2.6 57 3.5 SW 17 26 9 14 1023.5 1023.5 0.0
30/10:30am 10.8 5.6 2.6 57 3.5 SW 19 24 10 13 1023.5 1023.5 0.0
30/10:00am 10.9 5.7 2.5 56 3.6 SW 19 30 10 16 1023.6 1023.6 0.0
30/09:30am 10.9 5.0 1.7 53 3.9 S 22 30 12 16 1023.6 1023.6 0.0
30/09:00am 10.4 3.8 2.3 57 3.4 S 26 33 14 18 1023.7 1023.7 0.0
30/08:30am 9.6 3.4 2.0 59 3.2 SSE 24 39 13 21 1023.7 1023.7 0.0
30/08:00am 8.9 4.3 1.6 60 3.0 SSE 15 32 8 17 1023.6 1023.6 0.0
30/07:30am 8.0 2.5 1.6 64 2.6 SSE 20 37 11 20 1023.2 1023.2 0.0
30/07:00am 7.7 2.1 1.3 64 2.6 SSE 20 35 11 19 1023.0 1023.0 0.0
30/06:30am 7.7 1.0 1.5 65 2.5 S 26 37 14 20 1022.5 1022.5 0.0
30/06:00am 7.6 1.3 1.7 66 2.4 S 24 33 13 18 1022.3 1022.3 0.0
30/05:30am 7.8 1.4 1.2 63 2.7 S 24 39 13 21 1022.1 1022.1 0.0
30/05:00am 8.0 2.4 1.4 63 2.7 S 20 30 11 16 1021.9 1021.9 0.0
30/04:30am 8.3 2.4 1.9 64 2.6 S 22 35 12 19 1021.7 1021.7 0.0
30/04:00am 6.9 2.9 2.8 75 1.7 SE 13 32 7 17 1021.5 1021.5 0.0
30/03:30am 4.0 0.9 0.0 75 1.5 ESE 6 15 3 8 1021.7 1021.7 0.0
30/03:00am 4.5 1.2 0.1 73 1.7 E 7 9 4 5 1021.8 1021.8 0.0
30/02:30am 6.9 3.8 1.6 69 2.1 SE 7 11 4 6 1021.8 1021.8 0.0
30/02:00am 7.8 4.5 2.3 68 2.3 ESE 9 13 5 7 1021.9 1021.9 0.0
30/01:30am 8.3 4.6 2.1 65 2.6 SSE 11 19 6 10 1022.2 1022.2 0.0
30/01:00am 9.3 4.2 2.9 64 2.7 S 19 26 10 14 1022.1 1022.1 0.0
30/12:30am 9.8 3.7 2.6 61 3.1 S 24 35 13 19 1022.5 1022.5 0.0
30/12:00am 9.9 3.0 2.5 60 3.1 S 28 39 15 21 1022.3 1022.3 0.0
 
Date/Time
EST
Temp
°C
App
Temp
°C
Dew
Point
Rel
Hum
%
Delta-T
°C
Wind Press
QNH
hPa
Press
MSL
hPa
Rain
since 9 am
mm
Dir
 
Spd
km/h
Gust
km/h
Spd
kts
Gust
kts
29/11:30pm 9.6 2.5 3.4 65 2.7 S 30 48 16 26 1022.3 1022.3 0.0
29/11:01pm 9.8 2.7 3.5 65 2.7 S 30 48 16 26 1022.4 1022.4 0.0
29/11:00pm 9.9 2.8 3.4 64 2.8 S 30 44 16 24 1022.4 1022.4 0.0
29/10:30pm 10.0 3.6 3.3 63 2.9 S 26 39 14 21 1022.4 1022.4 0.0
29/10:00pm 10.1 3.4 3.6 64 2.8 S 28 39 15 21 1022.3 1022.3 0.0
29/09:38pm 10.3 3.2 3.6 63 2.9 S 30 48 16 26 1022.2 1022.2 0.0
29/09:30pm 10.4 3.0 4.8 68 2.5 SSW 33 41 18 22 1022.1 1022.1 0.0
29/09:00pm 10.5 3.1 3.8 63 2.9 S 32 39 17 21 1022.0 1022.0 0.0
29/08:30pm 10.5 4.9 5.3 70 2.4 SSW 24 30 13 16 1021.6 1021.6 0.0
29/08:00pm 10.6 5.1 5.8 72 2.2 SSW 24 30 13 16 1021.3 1021.3 0.0
29/07:30pm 10.5 3.9 5.9 73 2.1 SSW 30 39 16 21 1021.1 1021.1 0.0
29/07:00pm 10.5 3.5 5.9 73 2.1 SSW 32 39 17 21 1020.7 1020.7 0.0
29/06:30pm 10.8 3.2 6.0 72 2.2 SSW 35 41 19 22 1020.4 1020.4 0.0
29/06:00pm 10.8 2.4 5.8 71 2.3 SSW 39 46 21 25 1019.9 1019.9 0.0
29/05:30pm 10.9 3.0 6.3 73 2.2 SSW 37 46 20 25 1019.4 1019.4 0.0
29/05:00pm 11.0 3.9 6.2 72 2.2 SSW 33 43 18 23 1019.1 1019.1 0.0
29/04:30pm 11.2 3.7 6.3 72 2.3 SSW 35 46 19 25 1018.9 1018.9 0.0
29/04:00pm 11.3 4.2 6.2 71 2.4 SSW 33 43 18 23 1018.7 1018.7 0.0
29/03:30pm 11.5 4.4 6.6 72 2.3 SSW 33 41 18 22 1018.5 1018.5 0.0
29/03:00pm 11.5 4.6 6.4 71 2.4 SSW 32 41 17 22 1018.3 1018.3 0.0
29/02:30pm 11.7 3.6 7.0 73 2.2 SW 39 50 21 27 1018.1 1018.1 0.0
29/02:00pm 11.5 2.3 6.4 71 2.4 SW 44 54 24 29 1017.8 1017.9 0.0
29/01:30pm 10.8 1.8 6.4 74 2.1 SW 43 54 23 29 1017.8 1017.9 0.0
29/01:00pm 10.7 2.1 6.3 74 2.1 SW 41 50 22 27 1018.0 1018.0 0.0
29/12:30pm 11.0 2.0 6.2 72 2.2 SW 43 54 23 29 1018.0 1018.0 0.0
29/12:00pm 11.4 2.8 6.5 72 2.3 SW 41 54 22 29 1018.1 1018.1 0.0
29/11:30am 10.4 1.7 5.8 73 2.1 SW 41 52 22 28 1018.5 1018.5 0.0
29/11:00am 9.9 1.9 5.5 74 2.0 SW 37 48 20 26 1018.7 1018.7 0.0
29/10:30am 9.8 2.7 5.4 74 2.0 SW 32 39 17 21 1018.5 1018.5 0.0
29/10:00am 9.5 2.1 5.1 74 2.0 SW 33 37 18 20 1018.4 1018.4 0.0
29/09:30am 9.9 2.6 4.7 70 2.3 SW 32 39 17 21 1018.6 1018.6 0.0
29/09:00am 9.2 1.3 4.2 71 2.2 SSW 35 46 19 25 1018.5 1018.5 0.6
29/08:30am 9.3 0.6 4.3 71 2.2 SSW 39 48 21 26 1018.1 1018.1 0.6
29/08:00am 9.0 0.7 4.2 72 2.1 SW 37 46 20 25 1018.3 1018.3 0.6
29/07:30am 9.2 1.3 4.2 71 2.2 SSW 35 46 19 25 1018.1 1018.1 0.6
29/07:00am 8.3 -0.2 3.4 71 2.1 SW 37 50 20 27 1017.7 1017.8 0.6
29/06:30am 8.1 0.0 3.2 71 2.1 SSW 35 46 19 25 1017.6 1017.7 0.6
29/06:00am 7.8 -1.1 3.3 73 1.9 SW 39 50 21 27 1017.7 1017.8 0.6
29/05:30am 8.2 0.1 3.1 70 2.2 SW 35 50 19 27 1017.4 1017.5 0.6
29/05:00am 7.8 -0.3 3.1 72 2.0 WSW 35 48 19 26 1017.6 1017.7 0.6
29/04:30am 8.0 -0.1 3.3 72 2.0 WSW 35 44 19 24 1017.8 1017.9 0.6
29/04:00am 7.4 -0.8 2.7 72 2.0 WSW 35 41 19 22 1018.2 1018.2 0.6
29/03:30am 7.3 -2.5 2.0 69 2.2 WSW 43 52 23 28 1018.7 1018.7 0.6
29/03:00am 7.4 -1.8 1.3 65 2.5 WSW 39 50 21 27 1019.2 1019.2 0.6
29/02:30am 7.4 -2.3 0.8 63 2.6 WSW 41 50 22 27 1019.6 1019.6 0.6
29/02:00am 7.5 -1.1 0.0 59 2.9 WSW 35 43 19 23 1020.2 1020.2 0.6
29/01:30am 8.0 -1.5 -0.5 55 3.3 SW 39 48 21 26 1020.8 1020.8 0.6
29/01:00am 7.8 -1.0 -0.9 54 3.3 SW 35 44 19 24 1021.2 1021.2 0.6
29/12:30am 7.8 -1.1 -1.7 51 3.6 SW 35 44 19 24 1021.5 1021.5 0.6
29/12:00am 8.0 -0.3 -1.8 50 3.7 SW 32 41 17 22 1021.9 1021.9 0.6
 
Date/Time
EST
Temp
°C
App
Temp
°C
Dew
Point
Rel
Hum
%
Delta-T
°C
Wind Press
QNH
hPa
Press
MSL
hPa
Rain
since 9 am
mm
Dir
 
Spd
km/h
Gust
km/h
Spd
kts
Gust
kts
28/11:30pm 7.9 -0.3 -1.3 52 3.5 SW 32 39 17 21 1022.2 1022.2 0.6
28/11:15pm 8.2 0.6 0.7 59 3.0 SW 30 41 16 22 1022.3 1022.3 0.6
28/11:00pm 7.7 2.5 0.2 59 2.9 SW 17 22 9 12 1022.5 1022.5 0.6
28/10:30pm 7.3 1.1 -0.6 57 3.0 SSW 22 30 12 16 1022.8 1022.8 0.6
28/10:00pm 7.4 -0.3 -0.1 59 2.9 SSW 30 35 16 19 1023.1 1023.1 0.6
28/09:30pm 7.2 -0.7 1.3 66 2.4 SSW 32 39 17 21 1023.4 1023.4 0.6
28/09:14pm 6.4 -0.3 3.9 84 1.1 S 28 37 15 20 1023.5 1023.5 0.6
28/09:00pm 4.1 1.2 2.6 90 0.6 E 7 11 4 6 1023.4 1023.4 0.6
28/08:30pm 3.9 1.4 1.8 86 0.8 NNE 4 7 2 4 1023.6 1023.6 0.4
28/08:00pm 5.6 2.7 2.6 81 1.2 NE 7 7 4 4 1023.5 1023.5 0.4
28/07:43pm 6.3 3.5 2.9 79 1.4 N 7 11 4 6 1023.4 1023.4 0.4
28/07:41pm 6.4 3.8 3.0 79 1.4 NNE 6 9 3 5 1023.4 1023.4 0.4
28/07:30pm 6.5 2.1 2.6 76 1.6 SSE 15 28 8 15 1023.7 1023.7 0.4
28/07:28pm 6.5 1.3 2.6 76 1.6 S 19 33 10 18 1023.8 1023.8 0.4
28/07:25pm 6.8 1.5 2.9 76 1.6 S 20 39 11 21 1023.9 1023.9 0.4
28/07:18pm 7.1 3.2 3.2 76 1.6 SSE 13 39 7 21 1023.8 1023.8 0.0
28/07:00pm 6.8 4.5 2.7 75 1.7 E 4 7 2 4 1023.4 1023.4 0.0

Other Formats:

Comma delimited format used in spreadsheet applications
http://www.bom.gov.au/fwo/IDT60801/IDT60801.94980.axf

JavaScript Object Notation format (JSON) in row-major order
http://www.bom.gov.au/fwo/IDT60801/IDT60801.94980.json